sensor_id;sensor_type;location;lat;lon;timestamp;pressure;altitude;pressure_sealevel;temperature;humidity
46778;BME280;32536;47.128;8.746;2022-09-09T00:01:11;91531.00;;;18.09;52.55
46778;BME280;32536;47.128;8.746;2022-09-09T00:04:08;91537.31;;;17.97;52.56
46778;BME280;32536;47.128;8.746;2022-09-09T00:15:52;91530.38;;;17.86;52.82
46778;BME280;32536;47.128;8.746;2022-09-09T00:18:54;91534.44;;;17.91;53.08
46778;BME280;32536;47.128;8.746;2022-09-09T00:21:37;91535.34;;;17.88;53.21
46778;BME280;32536;47.128;8.746;2022-09-09T00:24:23;91531.13;;;17.87;53.22
46778;BME280;32536;47.128;8.746;2022-09-09T00:27:08;91534.72;;;17.93;53.18
46778;BME280;32536;47.128;8.746;2022-09-09T00:29:54;91538.06;;;17.97;53.58
46778;BME280;32536;47.128;8.746;2022-09-09T00:32:50;91534.00;;;18.02;53.57
46778;BME280;32536;47.128;8.746;2022-09-09T00:35:27;91529.63;;;18.04;53.76
46778;BME280;32536;47.128;8.746;2022-09-09T00:38:01;91532.03;;;18.02;53.25
46778;BME280;32536;47.128;8.746;2022-09-09T00:43:51;91522.56;;;17.88;52.86
46778;BME280;32536;47.128;8.746;2022-09-09T00:52:21;91521.81;;;17.79;53.68
46778;BME280;32536;47.128;8.746;2022-09-09T00:58:20;91519.84;;;17.79;53.82
46778;BME280;32536;47.128;8.746;2022-09-09T01:00:52;91517.13;;;17.79;53.46
46778;BME280;32536;47.128;8.746;2022-09-09T01:03:32;91517.72;;;17.83;53.47
46778;BME280;32536;47.128;8.746;2022-09-09T01:12:23;91516.84;;;17.86;53.39
46778;BME280;32536;47.128;8.746;2022-09-09T01:15:26;91515.16;;;17.89;53.68
46778;BME280;32536;47.128;8.746;2022-09-09T01:18:11;91510.66;;;17.86;53.61
46778;BME280;32536;47.128;8.746;2022-09-09T01:26:20;91516.25;;;17.82;54.71
46778;BME280;32536;47.128;8.746;2022-09-09T01:28:51;91515.16;;;17.80;54.82
46778;BME280;32536;47.128;8.746;2022-09-09T01:31:22;91505.09;;;17.80;53.67
46778;BME280;32536;47.128;8.746;2022-09-09T01:33:54;91510.50;;;17.80;54.35
46778;BME280;32536;47.128;8.746;2022-09-09T01:39:23;91511.88;;;17.85;53.67
46778;BME280;32536;47.128;8.746;2022-09-09T01:41:50;91515.31;;;17.85;53.44
46778;BME280;32536;47.128;8.746;2022-09-09T01:44:17;91523.75;;;17.87;53.52
46778;BME280;32536;47.128;8.746;2022-09-09T01:46:45;91519.53;;;17.86;53.54
46778;BME280;32536;47.128;8.746;2022-09-09T01:49:13;91514.59;;;17.85;53.95
46778;BME280;32536;47.128;8.746;2022-09-09T01:51:40;91512.75;;;17.82;53.92
46778;BME280;32536;47.128;8.746;2022-09-09T01:54:10;91516.25;;;17.82;53.52
46778;BME280;32536;47.128;8.746;2022-09-09T01:57:38;91513.53;;;17.82;52.95
46778;BME280;32536;47.128;8.746;2022-09-09T02:00:06;91523.00;;;17.87;53.12
46778;BME280;32536;47.128;8.746;2022-09-09T02:08:49;91529.78;;;17.82;53.32
46778;BME280;32536;47.128;8.746;2022-09-09T02:11:22;91538.81;;;17.79;53.05
46778;BME280;32536;47.128;8.746;2022-09-09T02:13:57;91532.66;;;17.79;53.08
46778;BME280;32536;47.128;8.746;2022-09-09T02:16:28;91531.41;;;17.80;53.46
46778;BME280;32536;47.128;8.746;2022-09-09T02:19:21;91540.00;;;17.78;52.97
46778;BME280;32536;47.128;8.746;2022-09-09T02:21:56;91543.03;;;17.80;53.05
46778;BME280;32536;47.128;8.746;2022-09-09T02:24:27;91538.97;;;17.75;53.38
46778;BME280;32536;47.128;8.746;2022-09-09T02:26:56;91535.94;;;17.73;53.54
46778;BME280;32536;47.128;8.746;2022-09-09T02:29:29;91531.13;;;17.68;53.38
46778;BME280;32536;47.128;8.746;2022-09-09T02:32:02;91530.81;;;17.66;53.50
46778;BME280;32536;47.128;8.746;2022-09-09T02:34:36;91533.38;;;17.70;53.69
46778;BME280;32536;47.128;8.746;2022-09-09T02:37:09;91546.19;;;17.79;53.74
46778;BME280;32536;47.128;8.746;2022-09-09T02:39:37;91534.28;;;17.85;53.60
46778;BME280;32536;47.128;8.746;2022-09-09T02:42:04;91542.44;;;17.95;53.85
46778;BME280;32536;47.128;8.746;2022-09-09T02:44:34;91539.13;;;18.00;53.65
46778;BME280;32536;47.128;8.746;2022-09-09T02:49:47;91547.25;;;18.00;52.22
46778;BME280;32536;47.128;8.746;2022-09-09T02:58:29;91548.91;;;18.06;53.26
46778;BME280;32536;47.128;8.746;2022-09-09T03:00:57;91553.13;;;18.07;53.50
46778;BME280;32536;47.128;8.746;2022-09-09T03:03:26;91557.03;;;18.06;53.92
46778;BME280;32536;47.128;8.746;2022-09-09T03:05:53;91553.13;;;18.07;53.75
46778;BME280;32536;47.128;8.746;2022-09-09T03:08:20;91556.13;;;18.10;53.98
46778;BME280;32536;47.128;8.746;2022-09-09T03:10:47;91559.31;;;18.08;53.97
46778;BME280;32536;47.128;8.746;2022-09-09T03:13:14;91558.38;;;18.11;54.12
46778;BME280;32536;47.128;8.746;2022-09-09T03:15:41;91560.66;;;18.13;54.30
46778;BME280;32536;47.128;8.746;2022-09-09T03:18:08;91561.25;;;18.17;54.37
46778;BME280;32536;47.128;8.746;2022-09-09T03:20:35;91556.41;;;18.21;54.34
46778;BME280;32536;47.128;8.746;2022-09-09T03:23:02;91559.13;;;18.21;54.32
46778;BME280;32536;47.128;8.746;2022-09-09T03:25:29;91562.44;;;18.25;54.28
46778;BME280;32536;47.128;8.746;2022-09-09T03:27:56;91560.00;;;18.27;54.34
46778;BME280;32536;47.128;8.746;2022-09-09T03:30:24;91557.59;;;18.29;54.46
46778;BME280;32536;47.128;8.746;2022-09-09T03:32:52;91552.34;;;18.35;54.43
46778;BME280;32536;47.128;8.746;2022-09-09T03:35:19;91549.47;;;18.38;54.40
46778;BME280;32536;47.128;8.746;2022-09-09T03:37:46;91550.03;;;18.43;54.14
46778;BME280;32536;47.128;8.746;2022-09-09T03:40:13;91545.66;;;18.45;54.15
46778;BME280;32536;47.128;8.746;2022-09-09T03:42:40;91548.81;;;18.53;54.06
46778;BME280;32536;47.128;8.746;2022-09-09T03:45:08;91540.69;;;18.53;53.58
46778;BME280;32536;47.128;8.746;2022-09-09T03:47:36;91532.09;;;18.54;53.66
46778;BME280;32536;47.128;8.746;2022-09-09T03:50:05;91536.75;;;18.54;53.68
46778;BME280;32536;47.128;8.746;2022-09-09T03:52:38;91531.75;;;18.62;53.88
46778;BME280;32536;47.128;8.746;2022-09-09T03:55:07;91529.16;;;18.67;53.88
46778;BME280;32536;47.128;8.746;2022-09-09T03:57:34;91526.59;;;18.73;53.91
46778;BME280;32536;47.128;8.746;2022-09-09T04:00:04;91525.94;;;18.78;53.74
46778;BME280;32536;47.128;8.746;2022-09-09T04:02:33;91526.09;;;18.84;54.03
46778;BME280;32536;47.128;8.746;2022-09-09T04:04:59;91523.22;;;18.87;54.14
46778;BME280;32536;47.128;8.746;2022-09-09T04:07:26;91523.06;;;18.91;54.00
46778;BME280;32536;47.128;8.746;2022-09-09T04:09:53;91521.41;;;18.94;54.06
46778;BME280;32536;47.128;8.746;2022-09-09T04:12:21;91519.25;;;18.98;54.09
46778;BME280;32536;47.128;8.746;2022-09-09T04:14:48;91526.19;;;18.99;54.05
46778;BME280;32536;47.128;8.746;2022-09-09T04:17:14;91530.41;;;19.00;54.15
46778;BME280;32536;47.128;8.746;2022-09-09T04:19:41;91524.97;;;19.00;54.43
46778;BME280;32536;47.128;8.746;2022-09-09T04:22:08;91527.41;;;18.98;54.48
46778;BME280;32536;47.128;8.746;2022-09-09T04:24:35;91532.09;;;18.97;54.56
46778;BME280;32536;47.128;8.746;2022-09-09T04:27:02;91526.94;;;18.99;54.68
46778;BME280;32536;47.128;8.746;2022-09-09T04:29:29;91533.25;;;19.06;54.50
46778;BME280;32536;47.128;8.746;2022-09-09T04:31:56;91532.91;;;19.13;54.40
46778;BME280;32536;47.128;8.746;2022-09-09T04:34:22;91521.88;;;19.16;54.30
46778;BME280;32536;47.128;8.746;2022-09-09T04:36:49;91525.91;;;19.21;54.33
46778;BME280;32536;47.128;8.746;2022-09-09T04:39:17;91528.44;;;19.25;54.17
46778;BME280;32536;47.128;8.746;2022-09-09T04:41:45;91532.03;;;19.31;53.94
46778;BME280;32536;47.128;8.746;2022-09-09T04:44:12;91531.59;;;19.32;53.89
46778;BME280;32536;47.128;8.746;2022-09-09T04:46:39;91524.00;;;19.36;53.76
46778;BME280;32536;47.128;8.746;2022-09-09T04:49:07;91524.75;;;19.37;53.58
46778;BME280;32536;47.128;8.746;2022-09-09T04:51:33;91527.94;;;19.35;53.54
46778;BME280;32536;47.128;8.746;2022-09-09T04:54:00;91524.94;;;19.33;53.84
46778;BME280;32536;47.128;8.746;2022-09-09T04:56:27;91531.78;;;19.29;53.92
46778;BME280;32536;47.128;8.746;2022-09-09T04:58:54;91536.16;;;19.26;53.99
46778;BME280;32536;47.128;8.746;2022-09-09T05:01:23;91534.06;;;19.21;54.33
46778;BME280;32536;47.128;8.746;2022-09-09T05:03:50;91535.16;;;19.14;54.51
46778;BME280;32536;47.128;8.746;2022-09-09T05:06:20;91541.97;;;19.10;54.46
46778;BME280;32536;47.128;8.746;2022-09-09T05:08:48;91539.25;;;19.10;54.46
46778;BME280;32536;47.128;8.746;2022-09-09T05:13:52;91546.75;;;19.15;54.26
46778;BME280;32536;47.128;8.746;2022-09-09T05:16:20;91543.31;;;19.14;54.37
46778;BME280;32536;47.128;8.746;2022-09-09T05:18:48;91544.81;;;19.15;54.25
46778;BME280;32536;47.128;8.746;2022-09-09T05:21:17;91529.25;;;19.16;54.40
46778;BME280;32536;47.128;8.746;2022-09-09T05:24:03;91538.69;;;19.06;54.39
46778;BME280;32536;47.128;8.746;2022-09-09T05:26:30;91540.34;;;19.03;54.55
46778;BME280;32536;47.128;8.746;2022-09-09T05:28:58;91548.03;;;19.04;54.57
46778;BME280;32536;47.128;8.746;2022-09-09T05:31:26;91548.78;;;19.05;54.63
46778;BME280;32536;47.128;8.746;2022-09-09T05:33:56;91554.03;;;19.09;54.64
46778;BME280;32536;47.128;8.746;2022-09-09T05:36:23;91545.44;;;19.10;54.53
46778;BME280;32536;47.128;8.746;2022-09-09T05:41:37;91552.97;;;19.15;54.73
46778;BME280;32536;47.128;8.746;2022-09-09T05:44:04;91555.69;;;19.15;54.70
46778;BME280;32536;47.128;8.746;2022-09-09T05:46:31;91556.88;;;19.14;54.88
46778;BME280;32536;47.128;8.746;2022-09-09T05:48:58;91552.38;;;19.11;55.13
46778;BME280;32536;47.128;8.746;2022-09-09T05:51:27;91548.59;;;19.09;55.07
46778;BME280;32536;47.128;8.746;2022-09-09T05:53:55;91546.19;;;19.11;54.95
46778;BME280;32536;47.128;8.746;2022-09-09T05:56:28;91550.84;;;19.10;55.05
46778;BME280;32536;47.128;8.746;2022-09-09T05:58:55;91540.59;;;19.14;55.04
46778;BME280;32536;47.128;8.746;2022-09-09T06:03:52;91549.91;;;19.23;54.81
46778;BME280;32536;47.128;8.746;2022-09-09T06:06:22;91557.59;;;19.24;54.48
46778;BME280;32536;47.128;8.746;2022-09-09T06:08:55;91549.44;;;19.24;54.68
46778;BME280;32536;47.128;8.746;2022-09-09T06:11:25;91560.78;;;19.23;54.77
46778;BME280;32536;47.128;8.746;2022-09-09T06:13:55;91551.84;;;19.22;54.88
46778;BME280;32536;47.128;8.746;2022-09-09T06:16:23;91557.59;;;19.24;54.71
46778;BME280;32536;47.128;8.746;2022-09-09T06:18:55;91563.75;;;19.25;54.63
46778;BME280;32536;47.128;8.746;2022-09-09T06:21:29;91557.53;;;19.09;53.27
46778;BME280;32536;47.128;8.746;2022-09-09T06:23:58;91553.97;;;18.94;54.27
46778;BME280;32536;47.128;8.746;2022-09-09T06:26:30;91550.50;;;18.84;54.32
46778;BME280;32536;47.128;8.746;2022-09-09T06:28:59;91551.72;;;18.83;54.21
46778;BME280;32536;47.128;8.746;2022-09-09T06:31:29;91550.22;;;18.82;54.32
46778;BME280;32536;47.128;8.746;2022-09-09T06:33:58;91544.50;;;18.80;54.29
46778;BME280;32536;47.128;8.746;2022-09-09T06:36:27;91542.69;;;18.77;54.51
46778;BME280;32536;47.128;8.746;2022-09-09T06:38:55;91549.63;;;18.78;54.73
46778;BME280;32536;47.128;8.746;2022-09-09T06:41:24;91547.38;;;18.76;54.72
46778;BME280;32536;47.128;8.746;2022-09-09T06:43:55;91545.41;;;18.77;54.87
46778;BME280;32536;47.128;8.746;2022-09-09T06:46:24;91542.69;;;18.77;55.01
46778;BME280;32536;47.128;8.746;2022-09-09T06:48:57;91542.69;;;18.77;54.93
46778;BME280;32536;47.128;8.746;2022-09-09T06:51:27;91540.44;;;18.75;55.36
46778;BME280;32536;47.128;8.746;2022-09-09T06:53:58;91543.59;;;18.73;55.11
46778;BME280;32536;47.128;8.746;2022-09-09T06:59:04;91544.06;;;18.72;54.91
46778;BME280;32536;47.128;8.746;2022-09-09T07:01:36;91537.13;;;18.71;55.12
46778;BME280;32536;47.128;8.746;2022-09-09T07:04:06;91537.91;;;18.71;55.21
46778;BME280;32536;47.128;8.746;2022-09-09T07:06:40;91540.16;;;18.73;55.39
46778;BME280;32536;47.128;8.746;2022-09-09T07:09:10;91554.91;;;18.72;55.36
46778;BME280;32536;47.128;8.746;2022-09-09T07:11:39;91547.81;;;18.75;55.50
46778;BME280;32536;47.128;8.746;2022-09-09T07:14:11;91547.66;;;18.78;55.53
46778;BME280;32536;47.128;8.746;2022-09-09T07:16:40;91554.75;;;18.76;55.48
46778;BME280;32536;47.128;8.746;2022-09-09T07:19:08;91560.31;;;18.81;55.53
46778;BME280;32536;47.128;8.746;2022-09-09T07:21:36;91560.91;;;18.85;55.47
46778;BME280;32536;47.128;8.746;2022-09-09T07:24:03;91561.06;;;18.91;55.48
46778;BME280;32536;47.128;8.746;2022-09-09T07:26:33;91558.19;;;18.95;55.27
46778;BME280;32536;47.128;8.746;2022-09-09T07:29:01;91558.47;;;18.97;55.23
46778;BME280;32536;47.128;8.746;2022-09-09T07:31:30;91561.19;;;18.97;54.94
46778;BME280;32536;47.128;8.746;2022-09-09T07:34:03;91552.59;;;18.98;55.03
46778;BME280;32536;47.128;8.746;2022-09-09T07:36:35;91562.97;;;19.00;54.91
46778;BME280;32536;47.128;8.746;2022-09-09T07:39:09;91559.84;;;18.83;53.94
46778;BME280;32536;47.128;8.746;2022-09-09T07:41:42;91568.78;;;18.74;55.12
46778;BME280;32536;47.128;8.746;2022-09-09T07:44:19;91559.31;;;18.69;55.00
46778;BME280;32536;47.128;8.746;2022-09-09T07:46:47;91559.59;;;18.71;55.08
46778;BME280;32536;47.128;8.746;2022-09-09T07:49:14;91562.59;;;18.73;54.97
46778;BME280;32536;47.128;8.746;2022-09-09T07:51:44;91564.09;;;18.75;54.91
46778;BME280;32536;47.128;8.746;2022-09-09T07:54:13;91566.38;;;18.76;54.82
46778;BME280;32536;47.128;8.746;2022-09-09T07:56:41;91569.84;;;18.77;54.98
46778;BME280;32536;47.128;8.746;2022-09-09T07:59:09;91563.66;;;18.76;54.89
46778;BME280;32536;47.128;8.746;2022-09-09T08:01:47;91564.88;;;18.75;54.18
46778;BME280;32536;47.128;8.746;2022-09-09T08:04:19;91564.72;;;18.79;54.96
46778;BME280;32536;47.128;8.746;2022-09-09T08:06:58;91569.38;;;18.78;54.33
46778;BME280;32536;47.128;8.746;2022-09-09T08:09:28;91579.44;;;18.87;54.93
46778;BME280;32536;47.128;8.746;2022-09-09T08:11:58;91574.47;;;18.95;54.93
46778;BME280;32536;47.128;8.746;2022-09-09T08:14:28;91573.38;;;19.01;54.77
46778;BME280;32536;47.128;8.746;2022-09-09T08:16:55;91576.97;;;19.08;54.70
46778;BME280;32536;47.128;8.746;2022-09-09T08:19:22;91578.00;;;19.10;54.47
46778;BME280;32536;47.128;8.746;2022-09-09T08:21:49;91573.34;;;19.11;54.42
46778;BME280;32536;47.128;8.746;2022-09-09T08:24:16;91570.94;;;19.13;54.60
46778;BME280;32536;47.128;8.746;2022-09-09T08:26:47;91568.78;;;19.17;54.66
46778;BME280;32536;47.128;8.746;2022-09-09T08:29:17;91577.34;;;19.25;54.62
46778;BME280;32536;47.128;8.746;2022-09-09T08:31:52;91579.63;;;19.26;53.79
46778;BME280;32536;47.128;8.746;2022-09-09T08:34:21;91583.63;;;19.31;54.49
46778;BME280;32536;47.128;8.746;2022-09-09T08:36:49;91586.25;;;19.25;54.14
46778;BME280;32536;47.128;8.746;2022-09-09T08:39:18;91580.69;;;19.19;54.10
46778;BME280;32536;47.128;8.746;2022-09-09T08:55:36;91579.50;;;19.11;52.34
46778;BME280;32536;47.128;8.746;2022-09-09T09:12:26;91587.59;;;19.30;52.20
46778;BME280;32536;47.128;8.746;2022-09-09T09:14:55;91589.50;;;19.39;54.20
46778;BME280;32536;47.128;8.746;2022-09-09T09:17:26;91592.03;;;19.42;53.51
46778;BME280;32536;47.128;8.746;2022-09-09T09:19:58;91591.56;;;19.44;53.81
46778;BME280;32536;47.128;8.746;2022-09-09T09:22:36;91586.16;;;19.44;53.26
46778;BME280;32536;47.128;8.746;2022-09-09T09:25:24;91590.03;;;19.52;52.05
46778;BME280;32536;47.128;8.746;2022-09-09T09:28:15;91572.69;;;19.49;49.63
46778;BME280;32536;47.128;8.746;2022-09-09T09:30:56;91584.59;;;19.52;51.11
46778;BME280;32536;47.128;8.746;2022-09-09T09:33:48;91584.13;;;19.54;53.70
46778;BME280;32536;47.128;8.746;2022-09-09T09:36:16;91586.19;;;19.59;53.46
46778;BME280;32536;47.128;8.746;2022-09-09T09:38:54;91579.56;;;19.60;50.55
46778;BME280;32536;47.128;8.746;2022-09-09T09:44:22;91577.19;;;19.52;50.22
46778;BME280;32536;47.128;8.746;2022-09-09T09:47:06;91564.81;;;19.51;49.61
46778;BME280;32536;47.128;8.746;2022-09-09T09:49:34;91576.28;;;19.56;52.97
46778;BME280;32536;47.128;8.746;2022-09-09T09:52:02;91575.41;;;19.49;52.91
46778;BME280;32536;47.128;8.746;2022-09-09T09:54:33;91578.56;;;19.48;51.78
46778;BME280;32536;47.128;8.746;2022-09-09T09:57:15;91574.06;;;19.45;49.72
46778;BME280;32536;47.128;8.746;2022-09-09T09:59:43;91582.22;;;19.45;52.87
46778;BME280;32536;47.128;8.746;2022-09-09T10:02:17;91582.22;;;19.45;52.17
46778;BME280;32536;47.128;8.746;2022-09-09T10:04:46;91579.34;;;19.48;53.30
46778;BME280;32536;47.128;8.746;2022-09-09T10:07:19;91569.19;;;19.49;51.09
46778;BME280;32536;47.128;8.746;2022-09-09T10:09:55;91568.47;;;19.48;51.45
46778;BME280;32536;47.128;8.746;2022-09-09T10:12:26;91571.44;;;19.50;52.92
46778;BME280;32536;47.128;8.746;2022-09-09T10:34:47;91585.22;;;19.71;49.84
46778;BME280;32536;47.128;8.746;2022-09-09T10:55:45;91595.22;;;18.55;52.54
46778;BME280;32536;47.128;8.746;2022-09-09T10:58:22;91591.81;;;18.36;52.01
46778;BME280;32536;47.128;8.746;2022-09-09T11:00:55;91592.25;;;18.16;52.72
46778;BME280;32536;47.128;8.746;2022-09-09T11:03:28;91585.34;;;18.05;53.13
46778;BME280;32536;47.128;8.746;2022-09-09T11:05:59;91589.72;;;18.03;53.63
46778;BME280;32536;47.128;8.746;2022-09-09T11:08:35;91593.78;;;17.98;53.11
46778;BME280;32536;47.128;8.746;2022-09-09T11:11:14;91588.53;;;17.95;53.01
46778;BME280;32536;47.128;8.746;2022-09-09T11:16:39;91587.31;;;17.96;53.96
46778;BME280;32536;47.128;8.746;2022-09-09T11:19:33;91582.94;;;17.98;53.04
46778;BME280;32536;47.128;8.746;2022-09-09T11:22:04;91577.66;;;18.13;54.01
46778;BME280;32536;47.128;8.746;2022-09-09T11:25:01;91573.59;;;18.18;53.32
46778;BME280;32536;47.128;8.746;2022-09-09T11:27:37;91570.00;;;18.12;53.12
46778;BME280;32536;47.128;8.746;2022-09-09T11:30:18;91570.88;;;18.18;53.58
46778;BME280;32536;47.128;8.746;2022-09-09T11:36:20;91575.53;;;18.36;53.58
46778;BME280;32536;47.128;8.746;2022-09-09T11:39:22;91571.88;;;18.48;53.47
46778;BME280;32536;47.128;8.746;2022-09-09T11:42:16;91573.34;;;18.59;53.44
46778;BME280;32536;47.128;8.746;2022-09-09T11:44:48;91578.75;;;18.68;53.93
46778;BME280;32536;47.128;8.746;2022-09-09T11:47:26;91576.00;;;18.77;52.88
46778;BME280;32536;47.128;8.746;2022-09-09T11:52:50;91587.88;;;18.98;53.36
46778;BME280;32536;47.128;8.746;2022-09-09T11:55:32;91571.69;;;19.04;52.01
46778;BME280;32536;47.128;8.746;2022-09-09T11:58:05;91577.09;;;19.13;53.16
46778;BME280;32536;47.128;8.746;2022-09-09T12:00:43;91575.91;;;19.14;53.24
46778;BME280;32536;47.128;8.746;2022-09-09T12:03:46;91580.13;;;19.15;51.63
46778;BME280;32536;47.128;8.746;2022-09-09T12:08:53;91581.53;;;19.35;52.55
46778;BME280;32536;47.128;8.746;2022-09-09T12:11:30;91574.72;;;19.40;52.93
46778;BME280;32536;47.128;8.746;2022-09-09T12:13:59;91561.06;;;19.49;53.25
46778;BME280;32536;47.128;8.746;2022-09-09T12:16:36;91573.38;;;19.59;52.20
46778;BME280;32536;47.128;8.746;2022-09-09T12:21:58;91565.44;;;19.71;50.20
46778;BME280;32536;47.128;8.746;2022-09-09T12:24:46;91572.03;;;19.79;50.30
46778;BME280;32536;47.128;8.746;2022-09-09T12:27:47;91573.31;;;19.93;52.24
46778;BME280;32536;47.128;8.746;2022-09-09T12:30:39;91574.75;;;20.03;50.29
46778;BME280;32536;47.128;8.746;2022-09-09T12:33:13;91570.91;;;20.10;52.32
46778;BME280;32536;47.128;8.746;2022-09-09T12:35:46;91567.72;;;20.11;51.94
46778;BME280;32536;47.128;8.746;2022-09-09T12:38:25;91573.91;;;20.12;50.98
46778;BME280;32536;47.128;8.746;2022-09-09T12:41:00;91572.78;;;20.19;52.43
46778;BME280;32536;47.128;8.746;2022-09-09T12:43:28;91563.78;;;20.27;52.43
46778;BME280;32536;47.128;8.746;2022-09-09T12:46:06;91553.56;;;20.37;51.72
46778;BME280;32536;47.128;8.746;2022-09-09T12:48:37;91555.72;;;20.48;51.24
46778;BME280;32536;47.128;8.746;2022-09-09T12:51:19;91556.97;;;20.62;51.63
46778;BME280;32536;47.128;8.746;2022-09-09T12:53:52;91554.44;;;20.73;52.17
46778;BME280;32536;47.128;8.746;2022-09-09T12:56:35;91556.88;;;20.86;51.21
46778;BME280;32536;47.128;8.746;2022-09-09T12:59:02;91550.84;;;20.97;51.77
46778;BME280;32536;47.128;8.746;2022-09-09T13:01:31;91556.00;;;20.95;50.68
46778;BME280;32536;47.128;8.746;2022-09-09T13:04:01;91556.75;;;20.95;50.83
46778;BME280;32536;47.128;8.746;2022-09-09T13:06:30;91545.94;;;21.01;50.93
46778;BME280;32536;47.128;8.746;2022-09-09T13:08:59;91549.50;;;21.07;49.87
46778;BME280;32536;47.128;8.746;2022-09-09T13:11:38;91540.13;;;21.08;45.92
46778;BME280;32536;47.128;8.746;2022-09-09T13:14:38;91537.88;;;21.07;46.22
46778;BME280;32536;47.128;8.746;2022-09-09T13:17:06;91532.41;;;21.07;50.05
46778;BME280;32536;47.128;8.746;2022-09-09T13:19:44;91536.91;;;21.10;50.03
46778;BME280;32536;47.128;8.746;2022-09-09T13:22:14;91534.66;;;21.08;49.51
46778;BME280;32536;47.128;8.746;2022-09-09T13:24:47;91527.53;;;21.11;50.24
46778;BME280;32536;47.128;8.746;2022-09-09T13:27:35;91533.25;;;21.13;46.08
46778;BME280;32536;47.128;8.746;2022-09-09T13:35:54;91526.59;;;21.35;45.34
46778;BME280;32536;47.128;8.746;2022-09-09T13:38:21;91522.91;;;21.38;49.38
46778;BME280;32536;47.128;8.746;2022-09-09T13:40:59;91520.59;;;21.31;45.76
46778;BME280;32536;47.128;8.746;2022-09-09T13:43:34;91524.53;;;21.30;48.19
46778;BME280;32536;47.128;8.746;2022-09-09T13:46:42;91520.25;;;21.23;44.85
46778;BME280;32536;47.128;8.746;2022-09-09T13:51:47;91515.94;;;21.16;46.05
46778;BME280;32536;47.128;8.746;2022-09-09T13:54:28;91522.22;;;21.22;49.01
46778;BME280;32536;47.128;8.746;2022-09-09T13:56:56;91518.06;;;21.27;49.33
46778;BME280;32536;47.128;8.746;2022-09-09T13:59:23;91517.88;;;21.31;48.35
46778;BME280;32536;47.128;8.746;2022-09-09T14:01:50;91523.59;;;21.33;48.79
46778;BME280;32536;47.128;8.746;2022-09-09T14:04:18;91510.22;;;21.35;48.59
46778;BME280;32536;47.128;8.746;2022-09-09T14:06:49;91512.50;;;21.36;48.59
46778;BME280;32536;47.128;8.746;2022-09-09T14:09:17;91523.66;;;21.38;48.31
46778;BME280;32536;47.128;8.746;2022-09-09T14:11:45;91530.28;;;21.32;48.16
46778;BME280;32536;47.128;8.746;2022-09-09T14:14:12;91527.47;;;21.26;48.28
46778;BME280;32536;47.128;8.746;2022-09-09T14:16:38;91526.84;;;21.16;47.56
46778;BME280;32536;47.128;8.746;2022-09-09T14:19:07;91521.25;;;21.05;48.04
46778;BME280;32536;47.128;8.746;2022-09-09T14:21:35;91523.97;;;21.05;48.63
46778;BME280;32536;47.128;8.746;2022-09-09T14:24:02;91506.47;;;21.11;48.78
46778;BME280;32536;47.128;8.746;2022-09-09T14:26:28;91515.00;;;21.19;48.34
46778;BME280;32536;47.128;8.746;2022-09-09T14:28:56;91516.72;;;21.17;48.48
46778;BME280;32536;47.128;8.746;2022-09-09T14:31:24;91518.66;;;21.16;48.07
46778;BME280;32536;47.128;8.746;2022-09-09T14:33:51;91522.63;;;21.15;48.47
46778;BME280;32536;47.128;8.746;2022-09-09T14:36:18;91511.50;;;21.19;48.41
46778;BME280;32536;47.128;8.746;2022-09-09T14:38:45;91513.59;;;21.24;48.73
46778;BME280;32536;47.128;8.746;2022-09-09T14:41:15;91504.72;;;21.29;48.19
46778;BME280;32536;47.128;8.746;2022-09-09T14:43:44;91499.63;;;21.37;48.65
46778;BME280;32536;47.128;8.746;2022-09-09T14:46:14;91513.03;;;21.40;46.72
46778;BME280;32536;47.128;8.746;2022-09-09T14:48:42;91510.13;;;21.44;48.71
46778;BME280;32536;47.128;8.746;2022-09-09T14:51:14;91506.16;;;21.45;47.99
46778;BME280;32536;47.128;8.746;2022-09-09T14:53:44;91509.91;;;21.48;48.44
46778;BME280;32536;47.128;8.746;2022-09-09T14:56:45;91517.53;;;21.43;43.14
46778;BME280;32536;47.128;8.746;2022-09-09T14:59:13;91515.34;;;21.48;48.10
46778;BME280;32536;47.128;8.746;2022-09-09T15:01:40;91513.66;;;21.50;48.29
46778;BME280;32536;47.128;8.746;2022-09-09T15:04:07;91515.16;;;21.51;47.75
46778;BME280;32536;47.128;8.746;2022-09-09T15:06:37;91516.19;;;21.54;48.45
46778;BME280;32536;47.128;8.746;2022-09-09T15:09:05;91516.06;;;21.63;48.32
46778;BME280;32536;47.128;8.746;2022-09-09T15:11:35;91523.28;;;21.66;47.36
46778;BME280;32536;47.128;8.746;2022-09-09T15:14:04;91522.13;;;21.73;48.48
46778;BME280;32536;47.128;8.746;2022-09-09T15:16:33;91530.16;;;21.82;48.56
46778;BME280;32536;47.128;8.746;2022-09-09T15:19:01;91529.00;;;21.89;48.47
46778;BME280;32536;47.128;8.746;2022-09-09T15:21:31;91526.31;;;21.95;48.46
46778;BME280;32536;47.128;8.746;2022-09-09T15:24:00;91518.22;;;22.00;48.72
46778;BME280;32536;47.128;8.746;2022-09-09T15:26:27;91521.22;;;22.02;48.07
46778;BME280;32536;47.128;8.746;2022-09-09T15:28:56;91529.88;;;22.01;47.49
46778;BME280;32536;47.128;8.746;2022-09-09T15:31:27;91518.63;;;21.93;46.99
46778;BME280;32536;47.128;8.746;2022-09-09T15:33:57;91515.00;;;21.81;46.94
46778;BME280;32536;47.128;8.746;2022-09-09T15:36:33;91521.13;;;21.70;45.97
46778;BME280;32536;47.128;8.746;2022-09-09T15:39:07;91519.06;;;21.65;46.72
46778;BME280;32536;47.128;8.746;2022-09-09T15:41:38;91520.22;;;21.58;47.17
46778;BME280;32536;47.128;8.746;2022-09-09T15:44:05;91521.13;;;21.55;47.12
46778;BME280;32536;47.128;8.746;2022-09-09T15:46:33;91520.59;;;21.51;47.24
46778;BME280;32536;47.128;8.746;2022-09-09T15:49:12;91524.75;;;21.47;44.70
46778;BME280;32536;47.128;8.746;2022-09-09T15:51:57;91521.75;;;21.44;46.43
46778;BME280;32536;47.128;8.746;2022-09-09T15:54:31;91517.06;;;21.45;46.18
46778;BME280;32536;47.128;8.746;2022-09-09T15:57:06;91521.09;;;21.50;47.76
46778;BME280;32536;47.128;8.746;2022-09-09T15:59:35;91516.66;;;21.52;47.45
46778;BME280;32536;47.128;8.746;2022-09-09T16:02:03;91517.59;;;21.49;46.77